Time;durP1;ratioP1;P1;durP2;ratioP2;P2;SDS_P1;SDS_P2;PMS_P1;PMS_P2;Temp;Humidity;BMP_temperature;BMP_pressure;BME280_temperature;BME280_humidity;BME280_pressure;Samples;Min_cycle;Max_cycle;Signal;HPM_P1;HPM_P2
2022/12/01 00:01:03;;;;;;;26.15;16.13;;;;;;;;;;5027692;28;20092;-76
2022/12/01 00:03:31;;;;;;;25.35;15.80;;;;;;;;;;5022134;28;20046;-76
2022/12/01 00:05:59;;;;;;;25.40;15.65;;;;;;;;;;5024933;28;20085;-77
2022/12/01 00:08:27;;;;;;;24.00;15.18;;;;;;;;;;5020871;28;20041;-77
2022/12/01 00:11:03;;;;;;;29.88;18.50;;;;;;;;;;5029384;28;20076;-77
2022/12/01 00:13:30;;;;;;;21.95;14.05;;;;;;;;;;5026765;28;20041;-77
2022/12/01 00:15:58;;;;;;;32.15;18.63;;;;;;;;;;5019507;28;20058;-77
2022/12/01 00:18:26;;;;;;;21.95;14.98;;;;;;;;;;5026062;28;20064;-77
2022/12/01 00:20:54;;;;;;;30.40;17.20;;;;;;;;;;5025644;28;20038;-76
2022/12/01 00:23:22;;;;;;;27.30;16.50;;;;;;;;;;5007500;28;20441;-76
2022/12/01 00:25:49;;;;;;;18.50;12.48;;;;;;;;;;5011590;28;20037;-77
2022/12/01 00:28:17;;;;;;;28.55;16.58;;;;;;;;;;5002404;28;20049;-75
2022/12/01 00:30:44;;;;;;;26.90;16.75;;;;;;;;;;5023135;28;20053;-76
2022/12/01 00:33:11;;;;;;;25.48;14.70;;;;;;;;;;5015813;28;20069;-76
2022/12/01 00:35:38;;;;;;;25.42;15.52;;;;;;;;;;5018665;28;20429;-77
2022/12/01 00:38:06;;;;;;;26.42;16.05;;;;;;;;;;5022972;28;20047;-78
2022/12/01 00:40:33;;;;;;;24.33;16.08;;;;;;;;;;5022423;28;20088;-76
2022/12/01 00:43:01;;;;;;;24.83;16.25;;;;;;;;;;5004410;28;20053;-76
2022/12/01 00:45:28;;;;;;;27.20;17.27;;;;;;;;;;5017773;28;20095;-76
2022/12/01 00:47:55;;;;;;;24.40;15.13;;;;;;;;;;5007691;28;20041;-76
2022/12/01 00:50:23;;;;;;;30.45;15.60;;;;;;;;;;5021399;28;20053;-76
2022/12/01 00:52:50;;;;;;;23.13;15.23;;;;;;;;;;5008656;28;20112;-75
2022/12/01 00:55:18;;;;;;;29.73;15.75;;;;;;;;;;5008415;28;20412;-75
2022/12/01 00:57:45;;;;;;;26.98;15.77;;;;;;;;;;5023477;28;20128;-75
2022/12/01 01:00:13;;;;;;;28.80;17.08;;;;;;;;;;5005088;28;20099;-75
2022/12/01 01:02:40;;;;;;;34.30;17.25;;;;;;;;;;5019171;28;20042;-76
2022/12/01 01:05:08;;;;;;;27.08;16.58;;;;;;;;;;5020844;28;20045;-76
2022/12/01 01:07:35;;;;;;;30.42;15.65;;;;;;;;;;5017098;28;20037;-77
2022/12/01 01:10:03;;;;;;;27.00;13.68;;;;;;;;;;5020812;28;20080;-76
2022/12/01 01:12:30;;;;;;;35.45;15.98;;;;;;;;;;5024850;28;20088;-76
2022/12/01 01:14:57;;;;;;;28.05;13.52;;;;;;;;;;5018172;28;20115;-76
2022/12/01 01:17:25;;;;;;;18.88;12.77;;;;;;;;;;5017706;28;20501;-75
2022/12/01 01:19:53;;;;;;;23.92;15.02;;;;;;;;;;5025156;28;20038;-76
2022/12/01 01:22:20;;;;;;;28.92;16.50;;;;;;;;;;5023424;28;20057;-76
2022/12/01 01:24:47;;;;;;;30.58;15.75;;;;;;;;;;5007376;28;20077;-76
2022/12/01 01:27:15;;;;;;;29.80;16.05;;;;;;;;;;5006489;28;20045;-76
2022/12/01 01:29:42;;;;;;;21.85;14.65;;;;;;;;;;5020966;28;20069;-76
2022/12/01 01:32:09;;;;;;;23.58;15.32;;;;;;;;;;5016609;28;20034;-75
2022/12/01 01:34:36;;;;;;;25.35;15.77;;;;;;;;;;5002072;28;20064;-75
2022/12/01 01:37:04;;;;;;;23.85;15.07;;;;;;;;;;5019595;28;20045;-75
2022/12/01 01:39:31;;;;;;;27.67;17.30;;;;;;;;;;5012534;28;20077;-76
2022/12/01 01:41:58;;;;;;;30.48;16.02;;;;;;;;;;5003917;28;20064;-76
2022/12/01 01:44:45;;;;;;;25.40;15.07;;;;;;;;;;5021534;28;20501;-76
2022/12/01 01:47:12;;;;;;;18.70;13.30;;;;;;;;;;5002489;28;20049;-76
2022/12/01 01:49:41;;;;;;;24.83;13.15;;;;;;;;;;5018622;28;20056;-76
2022/12/01 01:52:09;;;;;;;20.88;13.80;;;;;;;;;;5001909;28;20053;-76
2022/12/01 01:54:41;;;;;;;30.10;14.35;;;;;;;;;;5021544;28;20041;-76
2022/12/01 01:57:11;;;;;;;47.95;16.02;;;;;;;;;;4997845;28;20211;-76
2022/12/01 01:59:40;;;;;;;22.35;14.07;;;;;;;;;;5016029;28;20064;-76
2022/12/01 02:02:08;;;;;;;36.85;15.20;;;;;;;;;;5013434;28;20489;-76
2022/12/01 02:04:37;;;;;;;25.50;13.88;;;;;;;;;;5021006;28;20446;-76
2022/12/01 02:07:05;;;;;;;26.48;14.07;;;;;;;;;;4999863;28;20037;-76
2022/12/01 02:09:32;;;;;;;28.10;15.55;;;;;;;;;;4994731;28;20079;-76
2022/12/01 02:12:20;;;;;;;21.02;12.23;;;;;;;;;;4998134;28;20096;-75
2022/12/01 02:15:07;;;;;;;20.52;12.45;;;;;;;;;;5019524;28;20042;-76
2022/12/01 02:17:41;;;;;;;24.00;12.40;;;;;;;;;;5015446;28;20045;-75
2022/12/01 02:20:27;;;;;;;24.90;12.68;;;;;;;;;;5022122;28;20057;-76
2022/12/01 02:23:00;;;;;;;16.15;11.25;;;;;;;;;;5017442;28;20125;-76
2022/12/01 02:25:33;;;;;;;19.70;12.73;;;;;;;;;;5021379;28;20464;-76
2022/12/01 02:28:01;;;;;;;28.08;13.48;;;;;;;;;;5017573;28;20037;-76
2022/12/01 02:30:47;;;;;;;18.90;9.50;;;;;;;;;;5017159;28;20067;-76
2022/12/01 02:33:34;;;;;;;15.02;10.20;;;;;;;;;;5009119;22;20054;-83
2022/12/01 02:36:05;;;;;;;18.52;11.52;;;;;;;;;;4985494;28;20043;-82
2022/12/01 02:38:52;;;;;;;21.83;12.15;;;;;;;;;;4971394;28;20038;-81
2022/12/01 02:41:25;;;;;;;17.90;11.27;;;;;;;;;;4953794;28;20050;-83
2022/12/01 02:43:55;;;;;;;21.50;12.55;;;;;;;;;;4971006;28;20046;-83
2022/12/01 02:46:33;;;;;;;17.77;11.88;;;;;;;;;;4954437;28;20039;-83
2022/12/01 02:49:07;;;;;;;15.32;11.23;;;;;;;;;;4951482;28;20030;-83
2022/12/01 02:51:36;;;;;;;19.33;12.55;;;;;;;;;;4953865;28;20038;-83
2022/12/01 02:54:04;;;;;;;16.75;11.30;;;;;;;;;;4970764;28;20043;-83
2022/12/01 02:56:32;;;;;;;17.48;11.93;;;;;;;;;;4965276;28;20057;-83
2022/12/01 02:58:59;;;;;;;27.13;12.93;;;;;;;;;;4967000;28;20047;-83
2022/12/01 03:01:40;;;;;;;16.02;11.60;;;;;;;;;;4971011;28;20049;-84
2022/12/01 03:04:27;;;;;;;20.10;12.43;;;;;;;;;;4953277;28;20166;-83
2022/12/01 03:07:10;;;;;;;14.65;10.00;;;;;;;;;;4969240;28;20050;-81
2022/12/01 03:09:57;;;;;;;15.70;10.70;;;;;;;;;;4963744;28;20073;-82
2022/12/01 03:12:48;;;;;;;17.35;11.45;;;;;;;;;;4972080;28;20047;-82
2022/12/01 03:15:22;;;;;;;23.92;13.30;;;;;;;;;;4981728;28;20050;-84
2022/12/01 03:17:56;;;;;;;20.75;12.55;;;;;;;;;;4976920;28;20047;-83
2022/12/01 03:20:27;;;;;;;18.10;12.68;;;;;;;;;;4975846;28;20125;-82
2022/12/01 03:22:59;;;;;;;15.95;11.68;;;;;;;;;;4978813;28;20043;-83
2022/12/01 03:25:26;;;;;;;;;;;;;;;;;;4978824;28;20409;-82
2022/12/01 03:27:55;;;;;;;20.02;12.88;;;;;;;;;;4974004;28;19989;-84
2022/12/01 03:30:43;;;;;;;18.25;11.40;;;;;;;;;;4977804;28;20054;-82
2022/12/01 03:33:14;;;;;;;14.70;10.48;;;;;;;;;;4975517;28;20090;-83
2022/12/01 03:35:44;;;;;;;18.65;12.82;;;;;;;;;;4971723;28;20058;-83
2022/12/01 03:38:14;;;;;;;20.10;11.98;;;;;;;;;;4969511;28;20057;-83
2022/12/01 03:40:42;;;;;;;14.98;9.48;;;;;;;;;;4971695;28;20055;-82
2022/12/01 03:43:11;;;;;;;15.60;10.65;;;;;;;;;;4970182;28;20113;-83
2022/12/01 03:45:51;;;;;;;14.13;9.65;;;;;;;;;;4966662;28;20058;-83
2022/12/01 03:48:18;;;;;;;22.95;11.45;;;;;;;;;;4973078;28;20035;-83
2022/12/01 03:51:04;;;;;;;20.88;12.10;;;;;;;;;;4978830;28;20045;-83
2022/12/01 03:53:45;;;;;;;19.23;12.82;;;;;;;;;;4976614;28;20050;-83
2022/12/01 03:56:14;;;;;;;35.60;20.70;;;;;;;;;;4979206;28;20066;-83
2022/12/01 03:58:43;;;;;;;14.75;10.85;;;;;;;;;;4985293;28;20046;-83
2022/12/01 04:01:11;;;;;;;16.30;11.05;;;;;;;;;;4979279;28;20047;-83
2022/12/01 04:03:38;;;;;;;13.80;9.85;;;;;;;;;;4968778;28;20062;-83
2022/12/01 04:06:06;;;;;;;21.75;12.38;;;;;;;;;;4979488;28;20118;-83
2022/12/01 04:08:36;;;;;;;19.75;11.85;;;;;;;;;;4985240;28;20065;-84
2022/12/01 04:12:28;;;;;;;18.45;11.10;;;;;;;;;;4988401;28;20043;-83
2022/12/01 04:13:58;;;;;;;15.30;8.98;;;;;;;;;;4988627;28;20047;-84
2022/12/01 04:16:25;;;;;;;13.43;10.13;;;;;;;;;;4987105;28;20094;-83
2022/12/01 04:18:53;;;;;;;16.90;10.75;;;;;;;;;;4986185;28;20054;-83
2022/12/01 04:21:20;;;;;;;16.92;11.40;;;;;;;;;;4987570;28;20042;-84
2022/12/01 04:24:00;;;;;;;14.38;9.63;;;;;;;;;;4984745;28;20055;-84
2022/12/01 04:26:28;;;;;;;12.02;9.73;;;;;;;;;;4985473;28;20065;-83
2022/12/01 04:28:56;;;;;;;10.90;8.25;;;;;;;;;;4984672;28;20043;-83
2022/12/01 04:31:23;;;;;;;12.45;9.25;;;;;;;;;;4966758;28;20047;-82
2022/12/01 04:33:53;;;;;;;13.48;9.93;;;;;;;;;;4972824;28;20046;-83
2022/12/01 04:36:21;;;;;;;14.35;10.43;;;;;;;;;;4970105;28;20105;-82
2022/12/01 04:38:48;;;;;;;12.75;9.63;;;;;;;;;;4968349;28;20046;-82
2022/12/01 04:41:16;;;;;;;14.38;10.30;;;;;;;;;;4976714;28;20058;-82
2022/12/01 04:43:43;;;;;;;18.65;11.23;;;;;;;;;;4979923;28;20046;-82
2022/12/01 04:46:11;;;;;;;18.77;15.50;;;;;;;;;;4956897;28;20046;-83
2022/12/01 04:48:39;;;;;;;15.40;10.82;;;;;;;;;;4961255;28;20039;-83
2022/12/01 04:51:07;;;;;;;14.77;10.93;;;;;;;;;;4976240;28;20054;-83
2022/12/01 04:53:35;;;;;;;17.20;11.90;;;;;;;;;;4957660;28;20050;-83
2022/12/01 04:56:02;;;;;;;13.60;10.70;;;;;;;;;;4974879;28;20046;-83
2022/12/01 04:58:31;;;;;;;10.63;8.82;;;;;;;;;;4972952;28;20038;-84
2022/12/01 05:01:02;;;;;;;13.45;9.95;;;;;;;;;;4972931;28;20097;-83
2022/12/01 05:03:30;;;;;;;15.85;11.65;;;;;;;;;;4973725;28;20420;-83
2022/12/01 05:06:04;;;;;;;13.07;10.73;;;;;;;;;;4973081;28;20039;-83
2022/12/01 05:08:33;;;;;;;16.98;10.98;;;;;;;;;;4950328;28;20114;-83
2022/12/01 05:11:00;;;;;;;15.05;11.10;;;;;;;;;;4971354;28;20109;-83
2022/12/01 05:13:28;;;;;;;16.50;11.40;;;;;;;;;;4971060;28;20143;-83
2022/12/01 05:16:05;;;;;;;20.15;12.80;;;;;;;;;;4966652;28;20177;-82
2022/12/01 05:18:32;;;;;;;14.90;10.75;;;;;;;;;;4972558;28;20039;-82
2022/12/01 05:20:59;;;;;;;16.40;10.57;;;;;;;;;;4971174;28;20047;-83
2022/12/01 05:23:28;;;;;;;15.98;11.18;;;;;;;;;;4970233;28;20109;-83
2022/12/01 05:25:55;;;;;;;18.20;12.55;;;;;;;;;;4963686;28;20042;-82
2022/12/01 05:28:23;;;;;;;12.77;8.68;;;;;;;;;;4969227;28;20058;-84
2022/12/01 05:30:51;;;;;;;17.70;11.02;;;;;;;;;;4969597;28;20150;-84
2022/12/01 05:33:25;;;;;;;14.23;10.38;;;;;;;;;;4969313;28;20038;-83
2022/12/01 05:35:55;;;;;;;12.88;9.73;;;;;;;;;;4968878;28;20432;-83
2022/12/01 05:38:22;;;;;;;17.67;13.95;;;;;;;;;;4971524;28;20505;-82
2022/12/01 05:40:51;;;;;;;17.73;11.93;;;;;;;;;;4973311;28;20417;-83
2022/12/01 05:43:22;;;;;;;17.42;12.43;;;;;;;;;;4967774;28;20134;-83
2022/12/01 05:45:56;;;;;;;14.90;11.88;;;;;;;;;;4971089;28;20553;-83
2022/12/01 05:48:23;;;;;;;17.65;12.45;;;;;;;;;;4971982;28;20130;-83
2022/12/01 05:50:51;;;;;;;18.63;12.43;;;;;;;;;;4970613;28;20043;-82
2022/12/01 05:53:19;;;;;;;18.30;13.20;;;;;;;;;;4951056;28;20047;-83
2022/12/01 05:55:46;;;;;;;17.70;12.77;;;;;;;;;;4972939;28;20550;-83
2022/12/01 05:58:13;;;;;;;24.20;14.82;;;;;;;;;;4966445;28;20523;-83
2022/12/01 06:00:40;;;;;;;20.50;13.73;;;;;;;;;;4962881;28;20073;-83
2022/12/01 06:03:13;;;;;;;32.35;26.65;;;;;;;;;;4971488;28;20042;-82
2022/12/01 06:05:40;;;;;;;19.08;13.35;;;;;;;;;;4971605;28;20517;-83
2022/12/01 06:08:08;;;;;;;15.68;12.05;;;;;;;;;;4966695;28;20039;-82
2022/12/01 06:10:38;;;;;;;18.42;12.10;;;;;;;;;;4963616;28;20053;-86
2022/12/01 06:13:06;;;;;;;16.42;11.23;;;;;;;;;;4972558;28;20047;-83
2022/12/01 06:15:33;;;;;;;18.83;12.98;;;;;;;;;;4973279;28;20442;-83
2022/12/01 06:18:00;;;;;;;18.00;12.32;;;;;;;;;;4972286;28;20077;-82
2022/12/01 06:20:28;;;;;;;14.02;10.45;;;;;;;;;;4962427;28;20449;-83
2022/12/01 06:22:55;;;;;;;17.60;12.23;;;;;;;;;;4968304;28;20472;-82
2022/12/01 06:25:22;;;;;;;17.02;12.52;;;;;;;;;;4962504;28;20161;-80
2022/12/01 06:27:57;;;;;;;16.92;11.88;;;;;;;;;;4954166;28;20054;-83
2022/12/01 06:30:25;;;;;;;17.80;12.45;;;;;;;;;;4981521;28;20038;-83
2022/12/01 06:32:52;;;;;;;14.98;10.73;;;;;;;;;;4961303;28;20066;-83
2022/12/01 06:35:30;;;;;;;15.63;10.50;;;;;;;;;;4972010;28;20138;-83
2022/12/01 06:37:58;;;;;;;14.88;10.80;;;;;;;;;;4963880;28;20420;-81
2022/12/01 06:40:25;;;;;;;17.23;11.15;;;;;;;;;;4954502;28;20055;-83
2022/12/01 06:42:53;;;;;;;18.42;11.90;;;;;;;;;;4951823;28;20499;-83
2022/12/01 06:45:23;;;;;;;13.30;10.70;;;;;;;;;;4958137;28;20046;-84
2022/12/01 06:47:52;;;;;;;19.60;12.98;;;;;;;;;;4971293;28;20101;-83
2022/12/01 06:50:20;;;;;;;15.80;11.18;;;;;;;;;;4968665;28;20051;-83
2022/12/01 06:52:47;;;;;;;15.73;11.27;;;;;;;;;;4978826;28;20129;-82
2022/12/01 06:55:16;;;;;;;13.98;10.38;;;;;;;;;;4979355;28;20046;-82
2022/12/01 06:57:43;;;;;;;15.98;10.70;;;;;;;;;;4976256;28;20082;-85
2022/12/01 07:00:12;;;;;;;14.27;10.68;;;;;;;;;;4978513;28;20130;-84
2022/12/01 07:02:40;;;;;;;17.45;12.32;;;;;;;;;;4969240;28;20059;-82
2022/12/01 07:05:10;;;;;;;15.63;11.50;;;;;;;;;;4965476;28;20074;-82
2022/12/01 07:07:38;;;;;;;18.63;12.55;;;;;;;;;;4966812;28;20039;-83
2022/12/01 07:10:07;;;;;;;15.68;11.60;;;;;;;;;;4970871;28;20106;-83
2022/12/01 07:12:34;;;;;;;15.43;10.73;;;;;;;;;;4951350;28;20050;-84
2022/12/01 07:15:02;;;;;;;16.70;10.50;;;;;;;;;;4953887;28;20051;-84
2022/12/01 07:17:29;;;;;;;15.10;10.50;;;;;;;;;;4967606;28;20042;-82
2022/12/01 07:19:59;;;;;;;16.42;11.40;;;;;;;;;;4966812;28;20105;-83
2022/12/01 07:22:30;;;;;;;16.27;11.90;;;;;;;;;;4965467;28;20082;-84
2022/12/01 07:24:59;;;;;;;16.75;12.20;;;;;;;;;;4962056;28;20047;-82
2022/12/01 07:27:30;;;;;;;16.23;12.02;;;;;;;;;;4968463;28;20047;-83
2022/12/01 07:29:57;;;;;;;17.53;12.60;;;;;;;;;;4946938;28;20070;-84
2022/12/01 07:32:25;;;;;;;15.90;11.45;;;;;;;;;;4961908;28;20562;-80
2022/12/01 07:34:55;;;;;;;17.00;12.60;;;;;;;;;;4942409;28;20055;-85
2022/12/01 07:37:26;;;;;;;16.95;11.70;;;;;;;;;;4966857;28;20046;-80
2022/12/01 07:39:53;;;;;;;16.33;12.05;;;;;;;;;;4971748;28;20509;-82
2022/12/01 07:42:20;;;;;;;18.85;11.20;;;;;;;;;;4972152;28;20065;-80
2022/12/01 07:44:48;;;;;;;15.88;10.55;;;;;;;;;;4974881;28;20059;-82
2022/12/01 07:47:15;;;;;;;19.65;13.35;;;;;;;;;;4959964;28;20047;-84
2022/12/01 07:49:45;;;;;;;16.70;10.82;;;;;;;;;;4963968;28;20055;-83
2022/12/01 07:52:15;;;;;;;18.27;11.77;;;;;;;;;;4968810;28;20046;-85
2022/12/01 07:54:42;;;;;;;20.98;16.42;;;;;;;;;;4970018;28;20046;-83
2022/12/01 07:57:13;;;;;;;13.23;9.45;;;;;;;;;;4967661;28;20047;-83
2022/12/01 07:59:40;;;;;;;12.52;9.05;;;;;;;;;;4968089;28;20221;-82
2022/12/01 08:02:08;;;;;;;18.42;11.07;;;;;;;;;;4964645;28;20039;-83
2022/12/01 08:04:36;;;;;;;17.65;12.23;;;;;;;;;;4970496;28;20166;-83
2022/12/01 08:07:03;;;;;;;24.98;20.52;;;;;;;;;;4963721;28;20516;-83
2022/12/01 08:09:31;;;;;;;18.63;12.38;;;;;;;;;;4970047;28;20073;-84
2022/12/01 08:12:00;;;;;;;13.68;9.70;;;;;;;;;;4976541;28;20039;-84
2022/12/01 08:14:28;;;;;;;17.73;11.77;;;;;;;;;;4975175;28;20042;-82
2022/12/01 08:16:55;;;;;;;15.13;11.43;;;;;;;;;;4972712;28;20105;-85
2022/12/01 08:19:24;;;;;;;19.33;12.13;;;;;;;;;;4957834;28;20356;-83
2022/12/01 08:21:51;;;;;;;15.43;11.32;;;;;;;;;;4968963;28;20039;-85
2022/12/01 08:24:19;;;;;;;17.20;12.23;;;;;;;;;;4970406;28;20043;-84
2022/12/01 08:26:46;;;;;;;22.50;13.55;;;;;;;;;;4967254;28;20043;-83
2022/12/01 08:29:13;;;;;;;17.85;12.32;;;;;;;;;;4970654;28;20633;-83
2022/12/01 08:31:47;;;;;;;21.52;14.30;;;;;;;;;;4973465;28;20034;-81
2022/12/01 08:34:15;;;;;;;25.60;13.68;;;;;;;;;;5031110;23;20042;-85
2022/12/01 08:36:43;;;;;;;18.30;13.18;;;;;;;;;;5011540;28;20042;-84
2022/12/01 08:39:13;;;;;;;19.35;13.57;;;;;;;;;;5013382;28;20050;-86
2022/12/01 08:41:41;;;;;;;20.45;11.85;;;;;;;;;;4995656;28;20141;-83
2022/12/01 08:44:15;;;;;;;24.38;14.88;;;;;;;;;;4976160;28;20052;-84
2022/12/01 08:46:43;;;;;;;23.77;15.02;;;;;;;;;;4976452;28;20056;-86
2022/12/01 08:49:13;;;;;;;20.58;13.93;;;;;;;;;;4973985;28;20141;-86
2022/12/01 08:51:41;;;;;;;21.42;14.18;;;;;;;;;;4973508;28;20111;-84
2022/12/01 08:54:10;;;;;;;24.25;15.35;;;;;;;;;;4971611;28;20514;-84
2022/12/01 08:56:39;;;;;;;21.35;14.63;;;;;;;;;;4983531;28;20038;-84
2022/12/01 08:59:07;;;;;;;24.75;14.52;;;;;;;;;;4976044;28;20050;-84
2022/12/01 09:01:52;;;;;;;20.88;13.35;;;;;;;;;;4988428;28;20041;-85
2022/12/01 09:04:32;;;;;;;21.77;14.95;;;;;;;;;;5006422;28;20498;-85
2022/12/01 09:07:01;;;;;;;25.30;14.75;;;;;;;;;;5002072;28;20039;-84
2022/12/01 09:09:30;;;;;;;22.08;14.65;;;;;;;;;;4972234;28;20088;-87
2022/12/01 09:12:00;;;;;;;22.65;14.15;;;;;;;;;;4972901;28;20042;-85
2022/12/01 09:14:28;;;;;;;24.00;15.10;;;;;;;;;;4995136;28;20038;-84
2022/12/01 09:17:08;;;;;;;18.67;12.93;;;;;;;;;;4957628;28;20045;-85
2022/12/01 09:19:36;;;;;;;23.52;16.10;;;;;;;;;;4972691;28;20073;-84
2022/12/01 09:22:03;;;;;;;20.83;13.93;;;;;;;;;;4996874;28;20053;-84
2022/12/01 09:24:31;;;;;;;20.45;15.10;;;;;;;;;;4975651;28;20049;-85
2022/12/01 09:27:10;;;;;;;21.33;14.82;;;;;;;;;;4970165;28;20121;-87
2022/12/01 09:29:40;;;;;;;21.98;14.07;;;;;;;;;;4977450;28;20141;-86
2022/12/01 09:32:32;;;;;;;21.17;13.23;;;;;;;;;;4972302;28;20061;-84
2022/12/01 09:35:04;;;;;;;17.80;12.82;;;;;;;;;;4977621;28;20050;-85
2022/12/01 09:37:50;;;;;;;19.58;13.90;;;;;;;;;;4970078;28;20135;-85
2022/12/01 09:40:40;;;;;;;18.10;12.93;;;;;;;;;;4973131;28;20050;-87
2022/12/01 09:43:29;;;;;;;19.85;13.75;;;;;;;;;;4998187;28;20050;-90
2022/12/01 09:46:02;;;;;;;20.42;13.77;;;;;;;;;;5000436;28;20054;-88
2022/12/01 09:48:42;;;;;;;17.90;13.68;;;;;;;;;;4993106;28;20050;-86
2022/12/01 09:51:13;;;;;;;20.63;14.88;;;;;;;;;;5032638;28;20074;-88
2022/12/01 09:53:42;;;;;;;19.65;13.55;;;;;;;;;;5031380;28;20068;-89
2022/12/01 09:56:21;;;;;;;21.10;13.30;;;;;;;;;;4985571;28;20052;-85
2022/12/01 09:59:13;;;;;;;19.33;14.65;;;;;;;;;;4979907;28;20046;-87
2022/12/01 10:01:43;;;;;;;20.10;14.80;;;;;;;;;;4998570;28;20057;-85
2022/12/01 10:04:16;;;;;;;23.98;16.13;;;;;;;;;;4996316;28;20046;-82
2022/12/01 10:06:46;;;;;;;23.17;14.18;;;;;;;;;;4992873;28;20061;-84
2022/12/01 10:09:23;;;;;;;17.02;11.68;;;;;;;;;;4979107;28;20507;-85
2022/12/01 10:11:52;;;;;;;20.65;13.90;;;;;;;;;;4994328;28;20096;-84
2022/12/01 10:14:21;;;;;;;20.88;14.18;;;;;;;;;;5009585;28;20528;-84
2022/12/01 10:17:10;;;;;;;19.08;13.85;;;;;;;;;;4995476;28;20046;-87
2022/12/01 10:19:44;;;;;;;21.85;14.02;;;;;;;;;;5012553;28;20068;-86
2022/12/01 10:22:24;;;;;;;18.77;13.52;;;;;;;;;;4959511;28;20086;-86
2022/12/01 10:25:12;;;;;;;21.42;14.35;;;;;;;;;;4970106;28;20053;-88
2022/12/01 10:27:43;;;;;;;18.98;13.45;;;;;;;;;;4989236;28;20113;-84
2022/12/01 10:30:18;;;;;;;19.52;13.45;;;;;;;;;;4997558;28;20100;-87
2022/12/01 10:33:10;;;;;;;21.73;14.50;;;;;;;;;;5009704;28;20056;-86
2022/12/01 10:35:40;;;;;;;25.83;14.82;;;;;;;;;;4981957;28;20130;-88
2022/12/01 10:38:13;;;;;;;24.05;16.67;;;;;;;;;;4969788;28;20522;-86
2022/12/01 10:40:44;;;;;;;22.75;15.23;;;;;;;;;;5004093;28;20312;-85
2022/12/01 10:43:19;;;;;;;21.50;14.65;;;;;;;;;;4988925;28;20073;-87
2022/12/01 10:45:49;;;;;;;18.90;14.23;;;;;;;;;;4985104;28;20065;-86
2022/12/01 10:48:53;;;;;;;16.77;12.32;;;;;;;;;;4981936;28;20050;-86
2022/12/01 10:51:24;;;;;;;20.20;14.23;;;;;;;;;;4996338;28;20076;-85
2022/12/01 10:54:00;;;;;;;16.38;12.68;;;;;;;;;;4956567;28;20129;-85
2022/12/01 10:56:27;;;;;;;20.27;13.43;;;;;;;;;;4984625;28;20043;-84
2022/12/01 10:59:01;;;;;;;20.65;14.60;;;;;;;;;;4984241;28;20462;-86
2022/12/01 11:01:34;;;;;;;18.55;13.98;;;;;;;;;;5003085;28;20045;-85
2022/12/01 11:04:20;;;;;;;19.83;15.05;;;;;;;;;;4998286;28;20500;-84
2022/12/01 11:06:51;;;;;;;18.90;13.82;;;;;;;;;;5001989;28;20050;-85
2022/12/01 11:09:19;;;;;;;23.00;15.32;;;;;;;;;;5000575;28;20396;-84
2022/12/01 11:12:03;;;;;;;21.08;15.25;;;;;;;;;;4971254;28;20042;-86
2022/12/01 11:14:30;;;;;;;20.65;13.13;;;;;;;;;;4990672;28;20042;-85
2022/12/01 11:17:13;;;;;;;17.52;13.25;;;;;;;;;;4953692;28;20172;-84
2022/12/01 11:19:41;;;;;;;23.88;15.70;;;;;;;;;;5018637;28;20053;-84
2022/12/01 11:22:22;;;;;;;22.58;15.68;;;;;;;;;;4965163;28;20050;-86
2022/12/01 11:24:53;;;;;;;20.80;15.27;;;;;;;;;;4985166;28;20122;-85
2022/12/01 11:27:24;;;;;;;23.85;15.93;;;;;;;;;;5006770;28;20637;-84
2022/12/01 11:29:54;;;;;;;23.85;17.05;;;;;;;;;;4984884;28;20116;-84
2022/12/01 11:32:26;;;;;;;22.95;16.23;;;;;;;;;;4982521;28;20106;-84
2022/12/01 11:34:57;;;;;;;24.33;16.70;;;;;;;;;;4977355;28;20519;-84
2022/12/01 11:37:28;;;;;;;21.05;15.20;;;;;;;;;;5008191;28;20061;-83
2022/12/01 11:40:03;;;;;;;39.55;32.88;;;;;;;;;;4971494;28;20054;-85
2022/12/01 11:42:33;;;;;;;24.23;15.85;;;;;;;;;;4990510;28;20463;-84
2022/12/01 11:45:18;;;;;;;24.45;16.95;;;;;;;;;;4978144;28;20576;-84
2022/12/01 11:47:59;;;;;;;26.52;16.48;;;;;;;;;;4975900;28;20133;-88
2022/12/01 11:50:28;;;;;;;26.10;17.02;;;;;;;;;;4996234;28;20038;-85
2022/12/01 11:52:55;;;;;;;24.33;15.85;;;;;;;;;;4998932;28;20543;-84
2022/12/01 11:55:29;;;;;;;27.45;16.92;;;;;;;;;;5010818;28;20041;-85
2022/12/01 11:57:59;;;;;;;27.55;17.10;;;;;;;;;;4979265;28;20069;-87
2022/12/01 12:00:28;;;;;;;26.27;15.57;;;;;;;;;;5007500;28;20041;-86
2022/12/01 12:03:13;;;;;;;34.50;19.15;;;;;;;;;;5023350;28;20042;-84
2022/12/01 12:05:52;;;;;;;28.00;16.83;;;;;;;;;;5017142;28;20041;-84
2022/12/01 12:08:38;;;;;;;23.85;15.25;;;;;;;;;;5015797;28;20133;-84
2022/12/01 12:11:21;;;;;;;29.38;17.95;;;;;;;;;;5022970;28;20068;-85
2022/12/01 12:14:04;;;;;;;23.73;16.85;;;;;;;;;;4973132;28;20486;-85
2022/12/01 12:16:44;;;;;;;30.35;19.20;;;;;;;;;;5015041;28;20042;-88
2022/12/01 12:19:30;;;;;;;23.27;16.95;;;;;;;;;;4991129;28;20400;-85
2022/12/01 12:22:14;;;;;;;27.40;17.73;;;;;;;;;;4998850;28;20042;-83
2022/12/01 12:24:48;;;;;;;29.13;17.00;;;;;;;;;;5011326;28;20630;-84
2022/12/01 12:27:22;;;;;;;34.88;21.00;;;;;;;;;;5014596;28;20049;-84
2022/12/01 12:29:58;;;;;;;26.38;17.55;;;;;;;;;;4997361;28;20037;-84
2022/12/01 12:32:42;;;;;;;25.65;16.88;;;;;;;;;;4990063;28;20040;-85
2022/12/01 12:35:28;;;;;;;25.08;17.30;;;;;;;;;;4967896;28;20530;-84
2022/12/01 12:38:01;;;;;;;26.42;16.80;;;;;;;;;;4988772;28;20426;-84
2022/12/01 12:40:36;;;;;;;30.98;18.45;;;;;;;;;;4971651;28;20522;-84
2022/12/01 12:43:03;;;;;;;30.67;19.67;;;;;;;;;;4979579;28;20045;-84
2022/12/01 12:45:31;;;;;;;28.63;18.20;;;;;;;;;;4988539;28;20296;-85
2022/12/01 12:48:01;;;;;;;25.40;18.13;;;;;;;;;;5000815;28;20041;-84
2022/12/01 12:50:43;;;;;;;26.88;17.88;;;;;;;;;;4986867;28;20042;-84
2022/12/01 12:53:17;;;;;;;24.52;17.70;;;;;;;;;;5003011;28;20034;-84
2022/12/01 12:55:49;;;;;;;26.13;18.00;;;;;;;;;;4970299;28;20447;-85
2022/12/01 12:58:24;;;;;;;22.95;15.88;;;;;;;;;;5004458;28;20053;-86
2022/12/01 13:01:04;;;;;;;31.73;19.63;;;;;;;;;;4969243;28;20104;-84
2022/12/01 13:03:42;;;;;;;26.85;17.27;;;;;;;;;;4988699;28;20042;-84
2022/12/01 13:06:14;;;;;;;29.35;18.42;;;;;;;;;;4987586;28;20059;-84
2022/12/01 13:08:45;;;;;;;28.05;19.35;;;;;;;;;;4974600;28;20073;-86
2022/12/01 13:11:31;;;;;;;24.27;17.13;;;;;;;;;;4974524;28;20060;-83
2022/12/01 13:14:02;;;;;;;28.15;19.17;;;;;;;;;;4972885;28;20056;-84
2022/12/01 13:16:36;;;;;;;28.97;21.63;;;;;;;;;;4990588;28;20042;-86
2022/12/01 13:19:15;;;;;;;29.05;18.75;;;;;;;;;;5011078;28;20279;-84
2022/12/01 13:21:44;;;;;;;24.75;17.08;;;;;;;;;;5014471;28;20050;-86
2022/12/01 13:24:17;;;;;;;28.80;18.05;;;;;;;;;;5011380;28;20203;-84
2022/12/01 13:26:52;;;;;;;27.95;17.92;;;;;;;;;;5011501;28;20096;-85
2022/12/01 13:29:23;;;;;;;29.13;17.00;;;;;;;;;;5012686;28;20507;-85
2022/12/01 13:31:51;;;;;;;31.13;18.77;;;;;;;;;;4996525;28;20045;-85
2022/12/01 13:34:42;;;;;;;26.23;18.33;;;;;;;;;;4998888;28;20056;-83
2022/12/01 13:37:11;;;;;;;24.52;17.45;;;;;;;;;;4973658;28;20045;-84
2022/12/01 13:39:40;;;;;;;25.13;16.77;;;;;;;;;;5029454;28;20099;-84
2022/12/01 13:42:09;;;;;;;25.35;17.58;;;;;;;;;;5029272;28;20037;-84
2022/12/01 13:44:42;;;;;;;27.02;17.38;;;;;;;;;;5017555;28;20041;-84
2022/12/01 13:47:29;;;;;;;25.98;18.00;;;;;;;;;;5031294;28;20053;-85
2022/12/01 13:49:57;;;;;;;32.05;19.35;;;;;;;;;;5014561;28;20128;-84
2022/12/01 13:52:25;;;;;;;27.85;18.98;;;;;;;;;;5027029;28;20045;-84
2022/12/01 13:55:19;;;;;;;26.85;17.55;;;;;;;;;;5031234;28;20095;-85
2022/12/01 13:57:50;;;;;;;32.97;19.23;;;;;;;;;;5012154;28;20053;-86
2022/12/01 14:00:23;;;;;;;26.58;17.83;;;;;;;;;;4979528;28;20056;-85
2022/12/01 14:03:10;;;;;;;26.85;18.17;;;;;;;;;;4995700;28;20064;-88
2022/12/01 14:05:44;;;;;;;25.83;17.17;;;;;;;;;;5018097;28;20069;-86
2022/12/01 14:08:15;;;;;;;25.05;17.38;;;;;;;;;;5013741;28;20049;-85
2022/12/01 14:10:52;;;;;;;25.70;17.90;;;;;;;;;;5032109;28;20037;-85
2022/12/01 14:13:20;;;;;;;31.10;19.50;;;;;;;;;;5028797;28;20522;-85
2022/12/01 14:15:53;;;;;;;30.90;27.83;;;;;;;;;;4995722;28;20045;-86
2022/12/01 14:18:34;;;;;;;26.88;17.23;;;;;;;;;;4982589;28;20049;-85
2022/12/01 14:21:06;;;;;;;27.15;18.60;;;;;;;;;;5026640;28;20052;-84
2022/12/01 14:23:33;;;;;;;;;;;;;;;;;;5035596;28;20083;-85
2022/12/01 14:26:04;;;;;;;25.23;16.67;;;;;;;;;;5002081;28;19961;-85
2022/12/01 14:28:51;;;;;;;25.47;17.13;;;;;;;;;;5003603;28;20045;-85
2022/12/01 14:31:18;;;;;;;25.02;17.13;;;;;;;;;;5014800;28;20650;-87
2022/12/01 14:33:52;;;;;;;29.70;18.33;;;;;;;;;;5027023;23;20457;-71
2022/12/01 14:36:23;;;;;;;29.60;19.23;;;;;;;;;;5034970;28;20568;-70
2022/12/01 14:39:12;;;;;;;27.58;19.02;;;;;;;;;;5056747;28;20051;-70
2022/12/01 14:41:47;;;;;;;27.65;18.75;;;;;;;;;;5053266;28;20524;-70
2022/12/01 14:44:15;;;;;;;24.70;17.58;;;;;;;;;;5066151;28;20075;-70
2022/12/01 14:46:50;;;;;;;25.75;17.77;;;;;;;;;;5063529;28;20044;-71